Selene — FJ3688 — position and weather

sailwx.info

Track history (hours):
 
Tides and Currents Weather Stations Pressure Air Temp Water Temp Dewpoint Dewpoint Depression Visibility Wind Speed Wind Dir Waves Ship Positions

Selene

Last reported at 2017-Sep-06 19:28 UTC. Time now 2017-Sep-26 22:01 UTC.
Position N 49°29' E 000°06'.
Warning: this ship's position is 20 days out of date.

Length 11 m.

Type: Sailing vessel. MMSI: 227358430.

Date/timePositionNaut miles runAvg speedWind from/ knotsBaromVisibWave heightAir tempDewpointWater temp
2017-Sep-06 19:28N 49°29' E 000°06'2 4.4
2017-Sep-06 19:00N 49°29' E 000°02'56 1.5
2017-Sep-05 05:57N 49°45' W 001°21'4 8.5
2017-Sep-05 05:30N 49°44' W 001°27'4 7.5
2017-Sep-05 05:00N 49°42' W 001°32'3 5.9
2017-Sep-05 04:29N 49°40' W 001°36'2 0.2
2017-Sep-04 18:46N 49°39' W 001°37'1 2.0
2017-Sep-04 18:30N 49°39' W 001°37'2 4.9
2017-Sep-04 18:00N 49°41' W 001°40'  
Track history (hours):
 
Tides and Currents Weather Stations Pressure Air Temp Water Temp Dewpoint Dewpoint Depression Visibility Wind Speed Wind Dir Waves Ship Positions

Selene

Last reported at 2017-Sep-06 19:28 UTC. Time now 2017-Sep-26 22:01 UTC.
Position N 49°29' E 000°06'.
Warning: this ship's position is 20 days out of date.

Length 11 m.

Type: Sailing vessel. MMSI: 227358430.

Date/timePositionNaut miles runAvg speedWind from/ knotsBaromVisibWave heightAir tempDewpointWater temp
2017-Sep-06 19:28N 49°29' E 000°06'2 4.4
2017-Sep-06 19:00N 49°29' E 000°02'56 1.5
2017-Sep-05 05:57N 49°45' W 001°21'4 8.5
2017-Sep-05 05:30N 49°44' W 001°27'4 7.5
2017-Sep-05 05:00N 49°42' W 001°32'3 5.9
2017-Sep-05 04:29N 49°40' W 001°36'2 0.2
2017-Sep-04 18:46N 49°39' W 001°37'1 2.0
2017-Sep-04 18:30N 49°39' W 001°37'2 4.9
2017-Sep-04 18:00N 49°41' W 001°40'  

Dump ship's entire track history